Time;durP1;ratioP1;P1;durP2;ratioP2;P2;SDS_P1;SDS_P2;PMS_P1;PMS_P2;Temp;Humidity;BMP_temperature;BMP_pressure;BME280_temperature;BME280_humidity;BME280_pressure;Samples;Min_cycle;Max_cycle;Signal;HPM_P1;HPM_P2
2022/02/17 00:00:42;;;;;;;;;;;;;;;17.60;54.29;99146.28;4977070;28;20372;-75
2022/02/17 00:03:08;;;;;;;;;;;;;;;17.59;54.25;99145.41;4995605;28;19918;-75
2022/02/17 00:05:33;;;;;;;;;;;;;;;17.60;54.19;99152.34;4999467;28;19913;-76
2022/02/17 00:07:59;;;;;;;;;;;;;;;17.61;54.29;99147.97;5000566;28;19918;-74
2022/02/17 00:10:26;;;;;;;;;;;;;;;17.60;54.23;99157.53;5018051;28;19918;-75
2022/02/17 00:12:52;;;;;;;;;;;;;;;17.59;54.40;99165.38;5000085;28;19914;-75
2022/02/17 00:15:17;;;;;;;;;;;;;;;17.60;54.30;99156.69;5000489;28;20271;-74
2022/02/17 00:17:43;;;;;;;;;;;;;;;17.58;54.54;99164.53;4981546;28;19936;-76
2022/02/17 00:20:09;;;;;;;;;;;;;;;17.58;54.21;99156.75;5002841;28;19918;-77
2022/02/17 00:22:34;;;;;;;;;;;;;;;17.57;54.11;99156.78;4998114;28;19913;-75
2022/02/17 00:25:00;;;;;;;;;;;;;;;17.58;54.26;99150.69;4981107;28;20379;-75
2022/02/17 00:27:25;;;;;;;;;;;;;;;17.59;54.24;99152.38;4999181;28;19998;-81
2022/02/17 00:29:50;;;;;;;;;;;;;;;17.58;54.23;99163.72;4999064;28;20394;-80
2022/02/17 00:32:16;;;;;;;;;;;;;;;17.59;54.15;99174.03;4985292;28;19991;-82
2022/02/17 00:34:41;;;;;;;;;;;;;;;17.58;54.42;99171.50;4987590;28;19926;-82
2022/02/17 00:37:06;;;;;;;;;;;;;;;17.58;54.16;99172.34;4980784;28;19918;-81
2022/02/17 00:39:32;;;;;;;;;;;;;;;17.56;54.29;99168.94;4980829;28;19918;-81
2022/02/17 00:41:57;;;;;;;;;;;;;;;17.56;54.19;99155.94;4998483;28;19917;-82
2022/02/17 00:44:24;;;;;;;;;;;;;;;17.57;54.05;99169.78;4964329;28;19922;-81
2022/02/17 00:46:49;;;;;;;;;;;;;;;17.56;54.17;99173.31;4964347;28;19918;-81
2022/02/17 00:49:15;;;;;;;;;;;;;;;17.56;54.09;99187.16;4981020;28;19944;-82
2022/02/17 00:51:40;;;;;;;;;;;;;;;17.56;54.15;99207.97;4969281;28;20364;-82
2022/02/17 00:54:05;;;;;;;;;;;;;;;17.57;53.90;99208.81;4963957;28;19983;-81
2022/02/17 00:56:30;;;;;;;;;;;;;;;17.55;54.03;99202.81;4997600;28;20016;-81
2022/02/17 00:58:55;;;;;;;;;;;;;;;17.56;53.98;99222.72;4980405;28;19921;-81
2022/02/17 01:01:21;;;;;;;;;;;;;;;17.56;54.09;99228.78;4980084;28;20069;-82
2022/02/17 01:03:46;;;;;;;;;;;;;;;17.54;53.95;99225.38;4965467;28;19918;-81
2022/02/17 01:06:11;;;;;;;;;;;;;;;17.56;53.96;99243.53;5017016;28;19918;-81
2022/02/17 01:08:36;;;;;;;;;;;;;;;17.56;53.96;99253.94;4995399;28;19990;-79
2022/02/17 01:11:02;;;;;;;;;;;;;;;17.54;53.82;99271.34;4979786;28;19925;-82
2022/02/17 01:13:27;;;;;;;;;;;;;;;17.54;53.91;99274.78;4980184;28;19917;-81
2022/02/17 01:15:52;;;;;;;;;;;;;;;17.53;53.46;99273.09;4996079;28;20430;-82
2022/02/17 01:18:18;;;;;;;;;;;;;;;17.54;53.85;99284.34;4998033;28;19929;-81
2022/02/17 01:20:43;;;;;;;;;;;;;;;17.54;53.87;99292.16;5001180;28;20371;-81
2022/02/17 01:23:08;;;;;;;;;;;;;;;17.53;53.94;99291.31;4999023;28;19914;-81
2022/02/17 01:25:34;;;;;;;;;;;;;;;17.54;53.78;99297.34;5002837;28;20257;-80
2022/02/17 01:27:59;;;;;;;;;;;;;;;17.54;53.81;99305.16;4979588;28;19925;-80
2022/02/17 01:30:24;;;;;;;;;;;;;;;17.54;53.79;99307.75;5008094;28;19979;-80
2022/02/17 01:32:50;;;;;;;;;;;;;;;17.54;53.80;99307.75;5016758;28;19921;-80
2022/02/17 01:35:15;;;;;;;;;;;;;;;17.53;53.59;99321.66;5008049;28;20435;-81
2022/02/17 01:37:42;;;;;;;;;;;;;;;17.53;53.75;99319.06;4996965;28;20353;-80
2022/02/17 01:40:08;;;;;;;;;;;;;;;17.52;53.81;99336.41;4982645;28;19961;-80
2022/02/17 01:42:36;;;;;;;;;;;;;;;17.52;53.64;99331.22;4979357;28;19957;-79
2022/02/17 01:45:03;;;;;;;;;;;;;;;17.51;53.48;99342.53;4963119;28;19922;-79
2022/02/17 01:47:28;;;;;;;;;;;;;;;17.52;53.61;99354.63;4979430;28;20288;-79
2022/02/17 01:49:53;;;;;;;;;;;;;;;17.51;53.76;99354.66;4979784;28;20012;-80
2022/02/17 01:52:19;;;;;;;;;;;;;;;17.51;53.43;99359.88;4996697;28;20287;-79
2022/02/17 01:54:45;;;;;;;;;;;;;;;17.51;53.63;99365.06;4979175;28;19928;-79
2022/02/17 01:57:18;;;;;;;;;;;;;;;17.51;53.45;99376.34;4983772;28;20277;-78
2022/02/17 01:59:44;;;;;;;;;;;;;;;17.51;53.61;99384.16;5015864;28;19913;-78
2022/02/17 02:02:09;;;;;;;;;;;;;;;17.51;53.49;99391.06;4998603;28;20004;-79
2022/02/17 02:04:35;;;;;;;;;;;;;;;17.51;53.59;99398.88;5016138;28;20356;-79
2022/02/17 02:07:00;;;;;;;;;;;;;;;17.50;53.24;99394.59;5015310;28;19914;-80
2022/02/17 02:09:26;;;;;;;;;;;;;;;17.51;53.34;99411.88;4996937;28;19924;-79
2022/02/17 02:11:51;;;;;;;;;;;;;;;17.50;53.49;99415.41;4984156;28;19944;-81
2022/02/17 02:14:17;;;;;;;;;;;;;;;17.49;53.47;99411.94;4978907;28;19964;-79
2022/02/17 02:16:42;;;;;;;;;;;;;;;17.48;53.22;99426.72;4992485;28;19921;-78
2022/02/17 02:19:07;;;;;;;;;;;;;;;17.50;53.48;99428.41;4993892;28;19914;-78
2022/02/17 02:21:35;;;;;;;;;;;;;;;17.48;53.28;99421.50;4969133;28;20016;-80
2022/02/17 02:24:00;;;;;;;;;;;;;;;17.48;53.41;99429.31;4982235;28;20260;-79
2022/02/17 02:26:27;;;;;;;;;;;;;;;17.48;53.39;99433.63;4981924;28;19924;-80
2022/02/17 02:28:53;;;;;;;;;;;;;;;17.48;53.34;99425.84;4962703;28;19922;-78
2022/02/17 02:31:18;;;;;;;;;;;;;;;17.48;53.19;99444.91;5006191;28;20272;-79
2022/02/17 02:33:44;;;;;;;;;;;;;;;17.48;53.25;99444.03;4982020;28;19918;-80
2022/02/17 02:36:09;;;;;;;;;;;;;;;17.48;53.05;99441.44;5004254;28;20025;-79
2022/02/17 02:38:34;;;;;;;;;;;;;;;17.47;53.31;99447.56;4998040;28;19960;-79
2022/02/17 02:41:00;;;;;;;;;;;;;;;17.47;53.08;99458.81;5008360;28;20024;-79
2022/02/17 02:43:25;;;;;;;;;;;;;;;17.47;53.05;99468.38;4991422;28;19921;-81
2022/02/17 02:45:50;;;;;;;;;;;;;;;17.46;53.17;99472.72;4976765;28;19976;-79
2022/02/17 02:48:16;;;;;;;;;;;;;;;17.47;53.08;99481.38;4978361;28;19918;-80
2022/02/17 02:50:42;;;;;;;;;;;;;;;17.46;53.02;99482.25;4982936;28;19921;-79
2022/02/17 02:53:08;;;;;;;;;;;;;;;17.47;52.92;99495.22;4964247;28;20364;-81
2022/02/17 02:55:33;;;;;;;;;;;;;;;17.45;53.18;99491.81;4974715;28;20028;-79
2022/02/17 02:57:58;;;;;;;;;;;;;;;17.46;52.83;99503.94;4981314;28;19932;-80
2022/02/17 03:00:24;;;;;;;;;;;;;;;17.45;52.91;99512.63;4987714;28;19968;-78
2022/02/17 03:02:49;;;;;;;;;;;;;;;17.44;52.83;99495.31;4996318;28;19967;-80
2022/02/17 03:05:15;;;;;;;;;;;;;;;17.45;52.83;99514.38;4980729;28;19917;-80
2022/02/17 03:07:41;;;;;;;;;;;;;;;17.45;52.71;99516.97;4997396;28;20294;-80
2022/02/17 03:10:07;;;;;;;;;;;;;;;17.44;52.99;99521.31;4986175;28;19917;-79
2022/02/17 03:12:34;;;;;;;;;;;;;;;17.43;52.77;99517.00;4993144;28;20341;-78
2022/02/17 03:14:59;;;;;;;;;;;;;;;17.44;52.86;99530.84;4997473;28;20256;-79
2022/02/17 03:17:24;;;;;;;;;;;;;;;17.44;52.75;99542.13;5000966;28;19933;-80
2022/02/17 03:19:49;;;;;;;;;;;;;;;17.43;52.57;99534.38;5010066;28;19921;-81
2022/02/17 03:22:15;;;;;;;;;;;;;;;17.42;52.61;99543.94;5018516;28;19981;-82
2022/02/17 03:24:40;;;;;;;;;;;;;;;17.43;52.90;99530.00;4999883;28;19968;-81
2022/02/17 03:27:09;;;;;;;;;;;;;;;17.43;52.67;99555.16;4999217;28;20434;-80
2022/02/17 03:29:34;;;;;;;;;;;;;;;17.41;52.70;99555.22;5017547;28;20016;-79
2022/02/17 03:31:59;;;;;;;;;;;;;;;17.42;52.65;99567.34;4998526;28;20370;-81
2022/02/17 03:34:25;;;;;;;;;;;;;;;17.42;52.92;99569.06;4999717;28;20024;-79
2022/02/17 03:36:50;;;;;;;;;;;;;;;17.41;52.67;99580.38;4985441;28;19927;-80
2022/02/17 03:39:16;;;;;;;;;;;;;;;17.42;52.70;99584.66;4962157;28;19967;-79
2022/02/17 03:41:41;;;;;;;;;;;;;;;17.42;52.45;99613.25;4978127;28;19973;-79
2022/02/17 03:44:06;;;;;;;;;;;;;;;17.40;52.79;99600.31;4995022;28;20378;-80
2022/02/17 03:46:32;;;;;;;;;;;;;;;17.41;52.51;99611.56;4978291;28;19921;-79
2022/02/17 03:48:57;;;;;;;;;;;;;;;17.41;52.56;99627.19;4994835;28;19914;-79
2022/02/17 03:51:22;;;;;;;;;;;;;;;17.40;52.59;99644.53;4987720;28;20363;-80
2022/02/17 03:53:47;;;;;;;;;;;;;;;17.40;52.22;99635.88;5014291;28;19924;-80
2022/02/17 03:56:13;;;;;;;;;;;;;;;17.40;52.49;99654.94;5014076;28;19928;-79
2022/02/17 04:01:22;;;;;;;;;;;;;;;17.39;52.57;99645.41;4999729;28;19924;-79
2022/02/17 04:03:47;;;;;;;;;;;;;;;17.40;52.49;99677.50;4980190;28;19921;-79
2022/02/17 04:06:12;;;;;;;;;;;;;;;17.39;52.59;99657.56;4996598;28;19952;-80
2022/02/17 04:08:37;;;;;;;;;;;;;;;17.39;52.47;99666.22;4979632;28;20284;-78
2022/02/17 04:11:04;;;;;;;;;;;;;;;17.40;52.53;99677.50;4960853;28;19965;-79
2022/02/17 04:13:29;;;;;;;;;;;;;;;17.40;52.31;99687.91;4981747;28;20283;-83
2022/02/17 04:15:55;;;;;;;;;;;;;;;17.39;52.40;99689.63;5013990;28;19919;-81
2022/02/17 04:18:20;;;;;;;;;;;;;;;17.39;52.33;99684.44;4983560;28;19980;-79
2022/02/17 04:20:46;;;;;;;;;;;;;;;17.41;52.51;99707.78;4996775;28;20285;-80
2022/02/17 04:23:11;;;;;;;;;;;;;;;17.39;52.49;99704.38;4977208;28;19928;-81
2022/02/17 04:25:36;;;;;;;;;;;;;;;17.38;52.32;99703.53;5002417;28;19963;-79
2022/02/17 04:28:01;;;;;;;;;;;;;;;17.38;52.28;99719.13;4978524;28;19922;-80
2022/02/17 04:30:27;;;;;;;;;;;;;;;17.39;52.21;99726.03;5014044;28;19918;-80
2022/02/17 04:32:52;;;;;;;;;;;;;;;17.38;52.47;99739.94;5006063;28;20372;-80
2022/02/17 04:35:17;;;;;;;;;;;;;;;17.39;52.32;99735.59;4980372;28;20374;-82
2022/02/17 04:37:43;;;;;;;;;;;;;;;17.38;52.18;99773.75;4991064;28;19918;-82
2022/02/17 04:40:08;;;;;;;;;;;;;;;17.39;52.12;99764.19;4989216;28;19961;-80
2022/02/17 04:42:33;;;;;;;;;;;;;;;17.38;52.24;99771.16;4975463;28;19926;-81
2022/02/17 04:44:59;;;;;;;;;;;;;;;17.38;52.12;99773.75;4997884;28;19917;-75
2022/02/17 04:47:24;;;;;;;;;;;;;;;17.39;51.92;99798.00;5013137;28;19968;-75
2022/02/17 04:49:49;;;;;;;;;;;;;;;17.38;52.11;99791.09;4991246;28;19918;-75
2022/02/17 04:52:14;;;;;;;;;;;;;;;17.37;52.16;99798.03;4980371;28;19969;-77
2022/02/17 04:54:41;;;;;;;;;;;;;;;17.37;51.95;99808.44;4980266;28;19917;-77
2022/02/17 04:57:06;;;;;;;;;;;;;;;17.37;51.97;99813.63;4980358;28;19996;-76
2022/02/17 04:59:32;;;;;;;;;;;;;;;17.36;51.95;99801.53;5005956;28;20016;-76
2022/02/17 05:01:57;;;;;;;;;;;;;;;17.36;51.70;99814.53;4999482;28;19968;-77
2022/02/17 05:04:22;;;;;;;;;;;;;;;17.35;51.72;99820.63;4984299;28;19918;-77
2022/02/17 05:06:48;;;;;;;;;;;;;;;17.35;52.03;99828.41;4980212;28;19961;-76
2022/02/17 05:09:13;;;;;;;;;;;;;;;17.35;52.00;99820.63;4993055;28;20367;-76
2022/02/17 05:11:38;;;;;;;;;;;;;;;17.34;51.95;99828.47;4999034;28;19921;-76
2022/02/17 05:14:03;;;;;;;;;;;;;;;17.34;52.01;99839.72;4988767;28;20276;-78
2022/02/17 05:16:29;;;;;;;;;;;;;;;17.33;51.83;99843.19;4979879;28;19936;-76
2022/02/17 05:18:54;;;;;;;;;;;;;;;17.34;52.03;99852.72;4971892;28;20055;-79
2022/02/17 05:21:20;;;;;;;;;;;;;;;17.33;51.90;99866.59;4973266;28;19921;-80
2022/02/17 05:23:45;;;;;;;;;;;;;;;17.34;51.69;99857.94;4963978;28;20039;-80
2022/02/17 05:26:12;;;;;;;;;;;;;;;17.33;52.01;99877.00;4996888;28;19917;-79
2022/02/17 05:28:37;;;;;;;;;;;;;;;17.33;51.65;99877.00;4979603;28;19914;-79
2022/02/17 05:31:03;;;;;;;;;;;;;;;17.32;51.62;99890.91;4979583;28;19969;-78
2022/02/17 05:33:28;;;;;;;;;;;;;;;17.32;51.68;99906.53;4979607;28;19957;-78
2022/02/17 05:35:53;;;;;;;;;;;;;;;17.32;51.75;99884.88;4980566;28;19926;-80
2022/02/17 05:38:18;;;;;;;;;;;;;;;17.32;51.35;99897.88;4998789;28;19918;-77
2022/02/17 05:40:44;;;;;;;;;;;;;;;17.32;51.30;99887.47;4982259;28;20269;-77
2022/02/17 05:43:09;;;;;;;;;;;;;;;17.31;51.63;99904.81;4968652;28;19964;-80
2022/02/17 05:45:36;;;;;;;;;;;;;;;17.32;51.61;99896.13;5004645;28;19922;-78
2022/02/17 05:48:01;;;;;;;;;;;;;;;17.30;51.55;99905.69;5003198;28;20016;-83
2022/02/17 05:50:26;;;;;;;;;;;;;;;17.31;51.45;99919.56;5000813;28;20017;-82
2022/02/17 05:52:51;;;;;;;;;;;;;;;17.29;51.56;99922.22;4968914;28;19926;-78
2022/02/17 05:55:17;;;;;;;;;;;;;;;17.35;51.91;99913.38;4967103;28;19984;-77
2022/02/17 05:57:42;;;;;;;;;;;;;;;17.38;51.69;99937.59;5001280;28;20435;-77
2022/02/17 06:00:08;;;;;;;;;;;;;;;17.37;51.72;99929.81;4975233;28;20261;-76
2022/02/17 06:02:33;;;;;;;;;;;;;;;17.35;51.57;99949.78;5016046;28;19917;-77
2022/02/17 06:04:58;;;;;;;;;;;;;;;17.35;51.71;99949.78;4982966;28;19984;-78
2022/02/17 06:07:24;;;;;;;;;;;;;;;17.33;51.53;99955.03;4973449;28;19958;-81
2022/02/17 06:09:49;;;;;;;;;;;;;;;17.33;51.76;99949.81;4978998;28;19941;-80
2022/02/17 06:12:14;;;;;;;;;;;;;;;17.33;51.91;99965.44;4979439;28;20446;-81
2022/02/17 06:14:40;;;;;;;;;;;;;;;17.33;51.84;99962.81;4980043;28;19921;-76
2022/02/17 06:17:05;;;;;;;;;;;;;;;17.34;51.98;99974.97;4963368;28;20368;-78
2022/02/17 06:19:30;;;;;;;;;;;;;;;17.34;52.00;99985.34;4963277;28;20276;-74
2022/02/17 06:21:56;;;;;;;;;;;;;;;17.34;52.19;99977.56;4996963;28;19914;-80
2022/02/17 06:24:21;;;;;;;;;;;;;;;17.34;52.11;99990.56;4979905;28;19973;-84
2022/02/17 06:26:46;;;;;;;;;;;;;;;17.34;52.19;99990.56;4963703;28;19917;-78
2022/02/17 06:29:11;;;;;;;;;;;;;;;17.41;52.46;99999.94;4963216;28;20331;-81
2022/02/17 06:31:37;;;;;;;;;;;;;;;17.47;52.39;100002.41;4979749;28;19917;-79
2022/02/17 06:34:02;;;;;;;;;;;;;;;17.51;52.22;100010.13;4979328;28;19918;-78
2022/02/17 06:36:27;;;;;;;;;;;;;;;17.51;52.01;100016.19;4995852;28;19918;-80
2022/02/17 06:38:52;;;;;;;;;;;;;;;17.53;52.43;100013.53;4978658;28;20017;-83
2022/02/17 06:41:19;;;;;;;;;;;;;;;17.54;52.36;100008.31;4962628;28;19917;-85
2022/02/17 06:43:44;;;;;;;;;;;;;;;17.55;52.44;100042.97;4978562;28;19920;-82
2022/02/17 06:46:10;;;;;;;;;;;;;;;17.56;52.35;100039.50;4978798;28;19914;-82
2022/02/17 06:48:35;;;;;;;;;;;;;;;17.58;52.36;100053.34;4980463;28;19910;-82
2022/02/17 06:51:00;;;;;;;;;;;;;;;17.58;52.16;100051.59;4978455;28;19913;-83
2022/02/17 06:53:25;;;;;;;;;;;;;;;17.59;52.49;100073.25;4978279;28;20352;-82
2022/02/17 06:55:51;;;;;;;;;;;;;;;17.59;52.31;100063.69;4961910;28;19968;-81
2022/02/17 06:58:16;;;;;;;;;;;;;;;17.60;52.19;100082.78;4992912;28;19922;-81
2022/02/17 07:00:42;;;;;;;;;;;;;;;17.61;52.27;100074.91;4978493;28;20287;-83
2022/02/17 07:03:07;;;;;;;;;;;;;;;17.61;52.08;100110.50;4978019;28;19926;-80
2022/02/17 07:05:33;;;;;;;;;;;;;;;17.63;51.93;100100.91;4994167;28;19925;-83
2022/02/17 07:07:58;;;;;;;;;;;;;;;17.63;52.14;100103.53;4994364;28;19918;-84
2022/02/17 07:13:07;;;;;;;;;;;;;;;17.67;51.87;100131.19;4995610;28;19948;-84
2022/02/17 07:15:35;;;;;;;;;;;;;;;17.68;51.99;100101.66;4994302;28;19918;-85
2022/02/17 07:18:02;;;;;;;;;;;;;;;17.68;51.99;100127.69;4978464;28;20423;-83
2022/02/17 07:20:30;;;;;;;;;;;;;;;17.70;51.92;100138.91;4995380;28;19968;-85
2022/02/17 07:22:56;;;;;;;;;;;;;;;17.73;51.99;100175.31;4994078;28;19913;-83
2022/02/17 07:25:21;;;;;;;;;;;;;;;17.74;51.95;100152.72;4977853;28;20390;-82
2022/02/17 07:27:46;;;;;;;;;;;;;;;17.77;51.80;100174.34;4977903;28;19949;-84
2022/02/17 07:30:12;;;;;;;;;;;;;;;17.80;51.62;100163.03;4994110;28;19940;-84
2022/02/17 07:32:40;;;;;;;;;;;;;;;17.83;51.64;100179.47;4977723;28;19917;-84
2022/02/17 07:35:05;;;;;;;;;;;;;;;17.84;51.34;100188.97;4993815;28;19921;-84
2022/02/17 07:37:30;;;;;;;;;;;;;;;17.84;51.36;100195.94;4995967;28;19918;-83
2022/02/17 07:39:55;;;;;;;;;;;;;;;17.80;51.59;100194.25;4978665;28;19924;-84
2022/02/17 07:42:21;;;;;;;;;;;;;;;17.82;51.44;100195.97;4993831;28;20012;-83
2022/02/17 07:44:46;;;;;;;;;;;;;;;17.83;51.30;100202.00;4977671;28;19918;-82
2022/02/17 07:47:11;;;;;;;;;;;;;;;17.84;51.24;100203.75;4978338;28;19918;-83
2022/02/17 07:49:36;;;;;;;;;;;;;;;17.85;51.21;100211.50;4978525;28;19917;-82
2022/02/17 07:52:02;;;;;;;;;;;;;;;17.92;51.05;100227.00;4994888;28;19920;-84
2022/02/17 07:54:27;;;;;;;;;;;;;;;17.94;50.88;100222.63;4994619;28;20001;-84
2022/02/17 07:56:52;;;;;;;;;;;;;;;17.93;51.11;100226.97;4993858;28;20005;-84
2022/02/17 07:59:23;;;;;;;;;;;;;;;17.97;50.77;100238.19;4996552;28;19918;-83
2022/02/17 08:01:48;;;;;;;;;;;;;;;17.97;50.78;100244.25;4979570;28;19918;-83
2022/02/17 08:04:13;;;;;;;;;;;;;;;18.01;50.66;100256.31;4997348;28;20332;-83
2022/02/17 08:06:47;;;;;;;;;;;;;;;18.02;50.61;100251.97;4979053;28;19918;-83
2022/02/17 08:09:12;;;;;;;;;;;;;;;18.04;50.72;100256.25;4980328;28;19948;-83
2022/02/17 08:11:38;;;;;;;;;;;;;;;18.05;50.43;100241.47;4995202;28;20012;-83
2022/02/17 08:14:03;;;;;;;;;;;;;;;18.05;50.58;100257.09;4994930;28;19944;-79
2022/02/17 08:16:29;;;;;;;;;;;;;;;18.06;50.54;100261.44;4994250;28;19918;-81
2022/02/17 08:18:59;;;;;;;;;;;;;;;18.07;50.47;100266.63;4978087;28;19918;-81
2022/02/17 08:21:25;;;;;;;;;;;;;;;18.18;50.01;100266.38;4994434;28;19984;-79
2022/02/17 08:23:50;;;;;;;;;;;;;;;18.30;49.99;100270.47;4978684;28;20319;-80
2022/02/17 08:26:15;;;;;;;;;;;;;;;18.40;49.65;100284.13;4996890;28;19949;-82
2022/02/17 08:28:40;;;;;;;;;;;;;;;18.49;49.20;100277.00;4980856;28;19918;-80
2022/02/17 08:31:06;;;;;;;;;;;;;;;18.59;49.22;100280.25;4998271;28;20406;-80
2022/02/17 08:33:31;;;;;;;;;;;;;;;18.60;49.09;100292.38;4980785;28;20364;-79
2022/02/17 08:35:56;;;;;;;;;;;;;;;18.63;49.07;100294.06;4998342;28;19918;-81
2022/02/17 08:38:29;;;;;;;;;;;;;;;18.64;49.28;100293.16;4980951;28;19943;-79
2022/02/17 08:40:54;;;;;;;;;;;;;;;18.68;49.06;100300.03;4981770;28;19925;-79
2022/02/17 08:43:19;;;;;;;;;;;;;;;18.65;49.00;100334.84;4981372;28;19918;-79
2022/02/17 08:45:45;;;;;;;;;;;;;;;18.63;49.14;100307.09;4997105;28;19918;-78
2022/02/17 08:48:10;;;;;;;;;;;;;;;18.60;49.11;100317.59;4996889;28;20253;-78
2022/02/17 08:50:36;;;;;;;;;;;;;;;18.59;49.20;100334.97;4996791;28;19918;-79
2022/02/17 08:53:02;;;;;;;;;;;;;;;18.57;49.08;100323.72;4998474;28;19988;-80
2022/02/17 08:55:27;;;;;;;;;;;;;;;18.58;49.21;100333.25;4997004;28;19922;-79
2022/02/17 08:57:53;;;;;;;;;;;;;;;18.56;49.06;100328.97;4996691;28;19933;-80
2022/02/17 09:00:18;;;;;;;;;;;;;;;18.55;49.09;100338.50;4997871;28;19917;-79
2022/02/17 09:02:44;;;;;;;;;;;;;;;18.50;49.08;100359.47;4980343;28;19924;-81
2022/02/17 09:05:09;;;;;;;;;;;;;;;18.51;49.09;100368.16;4980559;28;19960;-80
2022/02/17 09:07:34;;;;;;;;;;;;;;;18.49;49.16;100356.91;4997644;28;19914;-78
2022/02/17 09:10:00;;;;;;;;;;;;;;;18.46;48.94;100357.81;4998610;28;19944;-82
2022/02/17 09:12:29;;;;;;;;;;;;;;;18.43;49.10;100370.91;4997525;28;19918;-79
2022/02/17 09:14:54;;;;;;;;;;;;;;;18.42;49.28;100391.78;4997922;28;20045;-79
2022/02/17 09:17:19;;;;;;;;;;;;;;;18.40;49.12;100406.56;4981346;28;19968;-80
2022/02/17 09:19:45;;;;;;;;;;;;;;;18.38;49.36;100393.59;4983201;28;19925;-80
2022/02/17 09:22:10;;;;;;;;;;;;;;;18.38;49.14;100403.13;4999803;28;19928;-80
2022/02/17 09:24:37;;;;;;;;;;;;;;;18.37;49.41;100411.88;4999029;28;19925;-82
2022/02/17 09:27:03;;;;;;;;;;;;;;;18.35;49.33;100422.31;5003946;28;19924;-81
2022/02/17 09:29:28;;;;;;;;;;;;;;;18.35;49.19;100408.44;5009973;28;20000;-79
2022/02/17 09:31:53;;;;;;;;;;;;;;;18.36;49.34;100415.38;5010617;28;19917;-80
2022/02/17 09:34:18;;;;;;;;;;;;;;;18.36;49.38;100418.81;5011143;28;20349;-80
2022/02/17 09:36:44;;;;;;;;;;;;;;;18.36;49.42;100428.41;5009780;28;19945;-80
2022/02/17 09:39:09;;;;;;;;;;;;;;;18.35;49.37;100424.91;5010041;28;19924;-79
2022/02/17 09:41:34;;;;;;;;;;;;;;;18.36;49.31;100429.25;5010440;28;19949;-78
2022/02/17 09:44:02;;;;;;;;;;;;;;;18.35;49.32;100439.69;4991414;28;19940;-82
2022/02/17 09:46:28;;;;;;;;;;;;;;;18.34;49.33;100446.66;5000084;28;20396;-80
2022/02/17 09:48:56;;;;;;;;;;;;;;;18.33;49.24;100447.53;5008695;28;19917;-81
2022/02/17 09:51:25;;;;;;;;;;;;;;;18.35;49.21;100468.34;5001629;28;20004;-82
2022/02/17 09:53:50;;;;;;;;;;;;;;;18.33;49.26;100457.94;4981014;28;19921;-81
2022/02/17 09:56:16;;;;;;;;;;;;;;;18.32;49.26;100461.44;4996714;28;20009;-82
2022/02/17 09:58:41;;;;;;;;;;;;;;;18.30;49.04;100494.47;4980851;28;20024;-82
2022/02/17 10:01:07;;;;;;;;;;;;;;;18.28;49.45;100473.66;4964546;28;19964;-82
2022/02/17 10:03:36;;;;;;;;;;;;;;;18.28;49.38;100491.03;4980346;28;20436;-82
2022/02/17 10:06:06;;;;;;;;;;;;;;;18.25;49.67;100507.59;4997760;28;19917;-80
2022/02/17 10:08:31;;;;;;;;;;;;;;;18.24;49.34;100505.84;4980387;28;19920;-81
2022/02/17 10:10:57;;;;;;;;;;;;;;;18.22;49.47;100505.00;4963822;28;20005;-79
2022/02/17 10:13:23;;;;;;;;;;;;;;;18.22;49.49;100506.78;4965709;28;20387;-82
2022/02/17 10:15:52;;;;;;;;;;;;;;;18.21;49.58;100508.53;4996837;28;19920;-81
2022/02/17 10:18:19;;;;;;;;;;;;;;;18.20;49.44;100516.34;4979264;28;20368;-80
2022/02/17 10:20:56;;;;;;;;;;;;;;;18.18;49.69;100532.03;4996977;28;19937;-81
2022/02/17 10:23:22;;;;;;;;;;;;;;;18.18;49.68;100526.81;4979585;28;19921;-80
2022/02/17 10:25:58;;;;;;;;;;;;;;;18.17;49.54;100517.28;4979853;28;20400;-81
2022/02/17 10:28:24;;;;;;;;;;;;;;;18.17;49.56;100532.03;4979495;28;19914;-81
2022/02/17 10:30:50;;;;;;;;;;;;;;;18.17;49.77;100537.25;4979191;28;19925;-80
2022/02/17 10:33:16;;;;;;;;;;;;;;;18.15;49.71;100545.09;4996786;28;19971;-79
2022/02/17 10:35:51;;;;;;;;;;;;;;;18.16;49.56;100540.72;4978913;28;20005;-82
2022/02/17 10:38:19;;;;;;;;;;;;;;;18.15;49.74;100537.25;4978892;28;19924;-81
2022/02/17 10:40:49;;;;;;;;;;;;;;;18.15;49.57;100545.09;4996905;28;19913;-81
2022/02/17 10:43:14;;;;;;;;;;;;;;;18.15;49.69;100536.41;4997004;28;19921;-81
2022/02/17 10:45:40;;;;;;;;;;;;;;;18.14;49.78;100539.88;4995998;28;19914;-81
2022/02/17 10:48:16;;;;;;;;;;;;;;;18.13;49.74;100536.44;4978370;28;19914;-82
2022/02/17 10:50:42;;;;;;;;;;;;;;;18.13;49.71;100551.19;4978358;28;19913;-82
2022/02/17 10:53:30;;;;;;;;;;;;;;;18.14;49.65;100565.94;4962190;28;19917;-83
2022/02/17 10:55:56;;;;;;;;;;;;;;;18.14;49.70;100558.13;4995631;28;19936;-82
2022/02/17 10:58:27;;;;;;;;;;;;;;;18.14;49.73;100560.72;4993646;28;19949;-82
2022/02/17 11:00:56;;;;;;;;;;;;;;;18.14;49.50;100569.41;4994407;28;19914;-82
2022/02/17 11:03:21;;;;;;;;;;;;;;;18.14;49.49;100576.34;4994246;28;19921;-82
2022/02/17 11:05:48;;;;;;;;;;;;;;;18.14;49.65;100563.31;4995540;28;19914;-81
2022/02/17 11:08:14;;;;;;;;;;;;;;;18.14;49.57;100568.53;4994308;28;19913;-81
2022/02/17 11:10:40;;;;;;;;;;;;;;;18.13;49.54;100578.09;4977980;28;19925;-80
2022/02/17 11:13:06;;;;;;;;;;;;;;;18.14;49.49;100591.97;4994546;28;20280;-78
2022/02/17 11:15:36;;;;;;;;;;;;;;;18.15;49.35;100586.75;4995612;28;20438;-77
2022/02/17 11:18:02;;;;;;;;;;;;;;;18.15;49.63;100594.56;4994203;28;19918;-80
2022/02/17 11:20:29;;;;;;;;;;;;;;;18.17;49.45;100610.16;4977928;28;19918;-79
2022/02/17 11:22:54;;;;;;;;;;;;;;;18.17;49.46;100602.34;4993978;28;19950;-75
2022/02/17 11:25:52;;;;;;;;;;;;;;;18.16;49.58;100613.66;4993922;28;20435;-81
2022/02/17 11:28:17;;;;;;;;;;;;;;;18.15;49.63;100619.75;4972219;28;19968;-78
2022/02/17 11:30:44;;;;;;;;;;;;;;;18.16;49.64;100635.38;4978074;28;19973;-82
2022/02/17 11:33:18;;;;;;;;;;;;;;;18.14;49.56;100631.03;4993807;28;20016;-81
2022/02/17 11:35:44;;;;;;;;;;;;;;;18.16;49.79;100648.38;4995047;28;20332;-77
2022/02/17 11:38:29;;;;;;;;;;;;;;;18.17;49.87;100641.44;4977544;28;19924;-84
2022/02/17 11:40:59;;;;;;;;;;;;;;;18.19;50.06;100645.72;4995093;28;19914;-77
2022/02/17 11:43:30;;;;;;;;;;;;;;;18.19;49.66;100669.16;4993674;28;19949;-80
2022/02/17 11:45:56;;;;;;;;;;;;;;;18.19;49.82;100661.34;4993669;28;19921;-79
2022/02/17 11:48:42;;;;;;;;;;;;;;;18.20;50.13;100664.81;4977631;28;19921;-79
2022/02/17 11:51:11;;;;;;;;;;;;;;;18.19;50.12;100650.06;4993344;28;19968;-78
2022/02/17 11:53:37;;;;;;;;;;;;;;;18.19;50.12;100663.09;4993569;28;19914;-78
2022/02/17 11:56:05;;;;;;;;;;;;;;;18.19;49.99;100668.31;4993349;28;19928;-78
2022/02/17 11:58:40;;;;;;;;;;;;;;;18.19;50.09;100658.75;4994472;28;19976;-79
2022/02/17 12:01:30;;;;;;;;;;;;;;;18.18;49.96;100649.22;4977226;28;19922;-81
2022/02/17 12:03:57;;;;;;;;;;;;;;;18.20;49.95;100649.19;4977931;28;20382;-78
2022/02/17 12:06:38;;;;;;;;;;;;;;;18.20;50.07;100655.25;4977165;28;20363;-81
2022/02/17 12:09:04;;;;;;;;;;;;;;;18.20;49.91;100663.06;4977346;28;20442;-81
2022/02/17 12:11:48;;;;;;;;;;;;;;;18.20;49.96;100662.19;4995013;28;19940;-81
2022/02/17 12:14:19;;;;;;;;;;;;;;;18.20;50.18;100657.84;4994793;28;19969;-81
2022/02/17 12:16:45;;;;;;;;;;;;;;;18.20;50.30;100668.25;4977143;28;19953;-83
2022/02/17 12:19:15;;;;;;;;;;;;;;;18.22;50.27;100655.22;4961097;28;19976;-80
2022/02/17 12:21:41;;;;;;;;;;;;;;;18.22;50.21;100657.84;4994313;28;20286;-81
2022/02/17 12:24:07;;;;;;;;;;;;;;;18.22;50.07;100668.25;4994475;28;20279;-79
2022/02/17 12:26:42;;;;;;;;;;;;;;;18.21;50.21;100664.78;4977148;28;19920;-79
2022/02/17 12:29:20;;;;;;;;;;;;;;;18.22;50.14;100669.09;4961958;28;19918;-79
2022/02/17 12:31:49;;;;;;;;;;;;;;;18.22;50.21;100661.28;4961010;28;19918;-79
2022/02/17 12:34:14;;;;;;;;;;;;;;;18.23;50.26;100656.97;4976834;28;19997;-79
2022/02/17 12:36:40;;;;;;;;;;;;;;;18.23;50.28;100665.63;4976796;28;20356;-79
2022/02/17 12:39:05;;;;;;;;;;;;;;;18.25;49.67;100653.44;4960808;28;19928;-79
2022/02/17 12:41:30;;;;;;;;;;;;;;;18.23;50.00;100659.56;4960875;28;19924;-80
2022/02/17 12:43:56;;;;;;;;;;;;;;;18.26;50.04;100659.50;4977648;28;20252;-79